Terminal Aerodrome Forecast
Issued by NWS Burlington, VT

Home | Current Version | Previous Version | Text Only | Print | Product List | Glossary On
Versions: 1 2 3 4 5 6 7 8 9 10 11 12 13 14
000
FTUS41 KBTV 272330
TAFBTV
TAF
KBTV 272330Z 2800/2824 19008KT P6SM OVC050
     FM280200 19010G18KT P6SM BKN050
     FM280600 19015G25KT P6SM VCSH OVC028
     FM281200 25010G18KT P6SM OVC035
     FM281600 29012G22KT P6SM BKN035=

USA.gov is the U.S. government's official web portal to all federal, state and local government web resources and services.